createdAt,value
2019-01-19T00:02:05.266Z,10.40
2019-01-19T00:05:26.355Z,7.85
2019-01-19T00:08:16.707Z,8.90
2019-01-19T00:11:24.174Z,7.65
2019-01-19T00:13:58.845Z,7.67
2019-01-19T00:17:06.643Z,6.90
2019-01-19T00:20:29.963Z,8.05
2019-01-19T00:23:51.528Z,6.95
2019-01-19T00:27:01.771Z,7.10
2019-01-19T00:30:06.076Z,5.60
2019-01-19T00:33:06.214Z,7.42
2019-01-19T00:36:04.987Z,6.20
2019-01-19T00:39:29.094Z,9.38
2019-01-19T00:42:44.494Z,7.37
2019-01-19T00:45:52.583Z,8.43
2019-01-19T00:48:43.876Z,7.80
2019-01-19T00:51:47.098Z,8.88
2019-01-19T00:54:22.842Z,8.38
2019-01-19T00:57:02.564Z,7.70
2019-01-19T00:59:35.424Z,8.28
2019-01-19T01:02:57.042Z,7.08
2019-01-19T01:05:52.440Z,8.48
2019-01-19T01:09:07.695Z,7.17
2019-01-19T01:12:07.745Z,6.97
2019-01-19T01:15:15.500Z,8.00
2019-01-19T01:17:51.914Z,5.75
2019-01-19T01:21:03.833Z,7.62
2019-01-19T01:23:52.356Z,7.35
2019-01-19T01:26:52.932Z,7.70
2019-01-19T01:30:00.560Z,7.65
2019-01-19T01:33:01.940Z,7.25
2019-01-19T01:36:12.643Z,7.00
2019-01-19T01:38:55.207Z,6.95
2019-01-19T01:42:15.274Z,7.35
2019-01-19T01:45:33.325Z,7.75
2019-01-19T01:49:06.549Z,7.45
2019-01-19T01:51:58.101Z,7.72
2019-01-19T01:54:49.562Z,7.55
2019-01-19T01:57:24.777Z,7.37
2019-01-19T02:00:43.040Z,7.55
2019-01-19T02:03:58.731Z,7.53
2019-01-19T02:07:06.282Z,7.65
2019-01-19T02:10:04.578Z,7.33
2019-01-19T02:12:54.366Z,7.28
2019-01-19T02:15:59.216Z,7.33
2019-01-19T02:18:49.742Z,7.20
2019-01-19T02:21:54.564Z,8.33
2019-01-19T02:25:07.261Z,7.28
2019-01-19T02:28:25.285Z,6.97
2019-01-19T02:31:22.810Z,7.65
2019-01-19T02:34:25.496Z,7.85
2019-01-19T02:37:03.218Z,6.75
2019-01-19T02:40:00.597Z,7.12
2019-01-19T02:43:02.277Z,6.67
2019-01-19T02:46:07.289Z,8.45
2019-01-19T02:49:34.434Z,7.35
2019-01-19T02:52:20.748Z,7.08
2019-01-19T02:55:31.934Z,6.40
2019-01-19T02:58:38.497Z,7.85
2019-01-19T03:01:51.590Z,7.42
2019-01-19T03:04:49.731Z,7.72
2019-01-19T03:08:05.269Z,7.87
2019-01-19T03:11:29.118Z,7.72
2019-01-19T03:14:25.240Z,6.70
2019-01-19T03:17:14.099Z,7.70
2019-01-19T03:20:18.975Z,7.67
2019-01-19T03:23:29.442Z,7.08
2019-01-19T03:26:09.200Z,7.47
2019-01-19T03:29:02.703Z,8.08
2019-01-19T03:31:55.671Z,6.50
2019-01-19T03:34:41.625Z,7.22
2019-01-19T03:38:06.754Z,7.08
2019-01-19T03:41:17.926Z,7.30
2019-01-19T03:44:15.535Z,6.47
2019-01-19T03:47:25.253Z,6.25
2019-01-19T03:50:29.515Z,7.22
2019-01-19T03:53:25.354Z,5.03
2019-01-19T03:56:37.524Z,7.22
2019-01-19T03:59:44.114Z,6.05
2019-01-19T04:02:40.421Z,6.15
2019-01-19T04:05:39.957Z,6.40
2019-01-19T04:08:36.904Z,5.60
2019-01-19T04:11:50.738Z,7.12
2019-01-19T04:15:08.973Z,6.25
2019-01-19T04:17:49.246Z,5.92
2019-01-19T04:20:52.732Z,6.25
2019-01-19T04:23:20.382Z,5.85
2019-01-19T04:26:01.906Z,6.03
2019-01-19T04:28:29.658Z,6.55
2019-01-19T04:30:57.123Z,7.72
2019-01-19T04:33:24.673Z,6.42
2019-01-19T04:35:52.272Z,7.00
2019-01-19T04:38:19.718Z,6.03
2019-01-19T04:40:47.162Z,6.12
2019-01-19T04:43:14.636Z,5.67
2019-01-19T04:45:42.103Z,5.83
2019-01-19T04:48:09.614Z,5.92
2019-01-19T04:50:37.061Z,6.03
2019-01-19T04:53:04.758Z,6.92
2019-01-19T04:55:32.270Z,6.37
2019-01-19T04:57:59.777Z,6.50
2019-01-19T05:00:27.838Z,6.33
2019-01-19T05:02:55.317Z,6.08
2019-01-19T05:05:22.766Z,6.65
2019-01-19T05:07:50.208Z,6.78
2019-01-19T05:10:17.969Z,6.95
2019-01-19T05:12:45.941Z,5.25
2019-01-19T05:15:16.192Z,7.00
2019-01-19T05:17:44.016Z,6.92
2019-01-19T05:20:11.578Z,7.33
2019-01-19T05:22:39.109Z,6.30
2019-01-19T05:25:07.735Z,6.25
2019-01-19T05:27:35.161Z,7.97
2019-01-19T05:30:03.220Z,7.53
2019-01-19T05:32:31.033Z,8.60
2019-01-19T05:34:58.685Z,12.23
2019-01-19T05:37:26.218Z,12.55
2019-01-19T05:39:53.827Z,11.12
2019-01-19T05:42:21.262Z,11.35
2019-01-19T05:44:48.801Z,10.72
2019-01-19T05:47:16.404Z,9.55
2019-01-19T05:49:43.865Z,7.42
2019-01-19T05:52:11.489Z,7.95
2019-01-19T05:54:39.017Z,7.08
2019-01-19T05:57:06.493Z,6.95
2019-01-19T05:59:33.982Z,6.80
2019-01-19T06:02:23.979Z,6.87
2019-01-19T06:04:55.462Z,7.75
2019-01-19T06:07:22.866Z,7.62
2019-01-19T06:09:50.303Z,5.92
2019-01-19T06:12:17.836Z,7.35
2019-01-19T06:14:45.311Z,7.85
2019-01-19T06:17:12.847Z,8.43
2019-01-19T06:19:40.754Z,7.87
2019-01-19T06:22:08.511Z,9.13
2019-01-19T06:24:36.065Z,7.72
2019-01-19T06:27:03.648Z,6.95
2019-01-19T06:29:31.194Z,6.87
2019-01-19T06:31:58.666Z,6.58
2019-01-19T06:34:26.138Z,6.60
2019-01-19T06:36:55.056Z,6.20
2019-01-19T06:39:22.875Z,7.50
2019-01-19T06:41:50.291Z,7.35
2019-01-19T06:44:17.896Z,6.15
2019-01-19T06:46:45.353Z,6.42
2019-01-19T06:49:12.790Z,6.42
2019-01-19T06:51:40.264Z,5.05
2019-01-19T06:54:08.096Z,6.37
2019-01-19T06:56:35.755Z,4.90
2019-01-19T06:59:03.538Z,5.70
2019-01-19T07:01:30.993Z,6.72
2019-01-19T07:03:58.433Z,6.20
2019-01-19T07:06:25.899Z,5.53
2019-01-19T07:08:53.401Z,6.33
2019-01-19T07:11:20.817Z,6.00
2019-01-19T07:13:48.612Z,6.22
2019-01-19T07:16:16.163Z,6.10
2019-01-19T07:18:45.727Z,7.47
2019-01-19T07:21:13.172Z,6.22
2019-01-19T07:23:40.660Z,6.25
2019-01-19T07:26:08.086Z,7.15
2019-01-19T07:28:35.623Z,6.12
2019-01-19T07:31:03.076Z,6.70
2019-01-19T07:33:30.543Z,6.90
2019-01-19T07:35:58.047Z,5.83
2019-01-19T07:38:25.746Z,5.50
2019-01-19T07:40:53.443Z,6.10
2019-01-19T07:43:22.511Z,7.22
2019-01-19T07:45:51.774Z,6.22
2019-01-19T07:48:19.340Z,9.75
2019-01-19T07:50:46.840Z,7.10
2019-01-19T07:53:14.353Z,8.50
2019-01-19T07:55:42.134Z,8.08
2019-01-19T07:58:09.963Z,8.08
2019-01-19T08:00:38.134Z,69.42
2019-01-19T08:03:06.580Z,23.30
2019-01-19T08:05:34.277Z,9.63
2019-01-19T08:08:01.758Z,7.55
2019-01-19T08:10:29.327Z,7.35
2019-01-19T08:12:56.877Z,7.35
2019-01-19T08:15:25.159Z,7.87
2019-01-19T08:17:52.878Z,7.37
2019-01-19T08:20:20.558Z,7.63
2019-01-19T08:22:48.088Z,5.50
2019-01-19T08:25:15.633Z,5.20
2019-01-19T08:27:43.134Z,5.30
2019-01-19T08:30:16.350Z,6.23
2019-01-19T08:32:44.019Z,5.77
2019-01-19T08:35:12.830Z,5.80
2019-01-19T08:37:40.393Z,6.03
2019-01-19T08:40:11.002Z,6.10
2019-01-19T08:42:40.551Z,5.80
2019-01-19T08:45:09.179Z,5.47
2019-01-19T08:47:36.783Z,5.70
2019-01-19T08:50:04.544Z,6.20
2019-01-19T08:52:32.123Z,5.73
2019-01-19T08:54:59.962Z,6.63
2019-01-19T08:57:28.178Z,6.50
2019-01-19T08:59:55.665Z,7.20
2019-01-19T09:02:23.977Z,7.70
2019-01-19T09:04:52.083Z,5.60
2019-01-19T09:07:19.582Z,6.40
2019-01-19T09:09:47.069Z,6.63
2019-01-19T09:12:14.673Z,6.17
2019-01-19T09:14:42.213Z,6.43
2019-01-19T09:17:10.058Z,6.97
2019-01-19T09:19:37.532Z,7.17
2019-01-19T09:22:05.272Z,7.47
2019-01-19T09:24:32.918Z,7.67
2019-01-19T09:27:00.394Z,6.90
2019-01-19T09:29:27.825Z,7.30
2019-01-19T09:31:55.472Z,7.17
2019-01-19T09:34:22.968Z,6.00
2019-01-19T09:36:50.922Z,7.70
2019-01-19T09:39:18.438Z,7.40
2019-01-19T09:41:45.881Z,6.50
2019-01-19T09:44:13.448Z,6.57
2019-01-19T09:46:41.219Z,7.00
2019-01-19T09:49:09.873Z,7.47
2019-01-19T09:51:37.370Z,7.20
2019-01-19T09:54:05.037Z,7.90
2019-01-19T09:56:32.642Z,6.53
2019-01-19T09:59:00.209Z,7.53
2019-01-19T10:01:27.713Z,7.60
2019-01-19T10:03:55.227Z,9.03
2019-01-19T10:06:22.881Z,7.72
2019-01-19T10:08:50.416Z,8.00
2019-01-19T10:11:17.951Z,7.40
2019-01-19T10:13:45.701Z,8.48
2019-01-19T10:16:13.361Z,8.10
2019-01-19T10:18:41.076Z,7.47
2019-01-19T10:21:08.545Z,7.78
2019-01-19T10:23:36.103Z,8.25
2019-01-19T10:26:03.901Z,8.35
2019-01-19T10:28:31.385Z,8.45
2019-01-19T10:30:58.876Z,7.67
2019-01-19T10:33:26.414Z,8.40
2019-01-19T10:35:53.884Z,6.87
2019-01-19T10:38:21.489Z,9.40
2019-01-19T10:40:49.030Z,9.50
2019-01-19T10:43:16.588Z,8.60
2019-01-19T10:45:44.134Z,9.17
2019-01-19T10:48:11.795Z,9.00
2019-01-19T10:50:39.334Z,9.50
2019-01-19T10:53:06.978Z,9.40
2019-01-19T10:55:34.476Z,8.33
2019-01-19T10:58:02.086Z,9.30
2019-01-19T11:00:29.929Z,8.50
2019-01-19T11:02:57.946Z,9.20
2019-01-19T11:05:25.523Z,10.40
2019-01-19T11:07:53.424Z,8.87
2019-01-19T11:10:22.724Z,9.33
2019-01-19T11:12:50.414Z,9.83
2019-01-19T11:15:18.122Z,9.33
2019-01-19T11:17:45.679Z,9.40
2019-01-19T11:20:15.795Z,10.97
2019-01-19T11:22:43.372Z,10.30
2019-01-19T11:25:10.994Z,9.37
2019-01-19T11:27:38.777Z,9.90
2019-01-19T11:30:10.549Z,10.10
2019-01-19T11:32:44.296Z,9.43
2019-01-19T11:35:07.828Z,10.30
2019-01-19T11:37:35.316Z,10.25
2019-01-19T11:40:03.128Z,9.83
2019-01-19T11:42:31.583Z,9.53
2019-01-19T11:44:59.171Z,9.20
2019-01-19T11:47:26.650Z,10.25
2019-01-19T11:49:54.140Z,11.18
2019-01-19T11:52:21.739Z,11.37
2019-01-19T11:54:49.294Z,12.25
2019-01-19T11:57:16.868Z,12.43
2019-01-19T11:59:44.474Z,10.82
2019-01-19T12:02:12.010Z,10.25
2019-01-19T12:04:39.551Z,9.20
2019-01-19T12:07:07.143Z,10.72
2019-01-19T12:09:34.582Z,8.55
2019-01-19T12:12:02.022Z,9.85
2019-01-19T12:14:29.481Z,8.98
2019-01-19T12:16:56.931Z,11.28
2019-01-19T12:19:24.476Z,8.28
2019-01-19T12:21:52.014Z,10.58
2019-01-19T12:24:19.533Z,9.73
2019-01-19T12:26:46.997Z,9.70
2019-01-19T12:29:14.694Z,11.00
2019-01-19T12:31:42.121Z,8.70
2019-01-19T12:34:09.645Z,10.15
2019-01-19T12:36:37.158Z,10.30
2019-01-19T12:39:07.746Z,9.75
2019-01-19T12:41:35.855Z,8.33
2019-01-19T12:44:03.903Z,10.10
2019-01-19T12:46:31.358Z,9.55
2019-01-19T12:48:58.901Z,11.60
2019-01-19T12:51:26.490Z,9.75
2019-01-19T12:53:53.941Z,10.78
2019-01-19T12:56:21.418Z,9.95
2019-01-19T12:58:48.857Z,10.40
2019-01-19T13:01:16.404Z,10.38
2019-01-19T13:03:44.378Z,9.45
2019-01-19T13:06:50.879Z,9.63
2019-01-19T13:09:30.682Z,9.68
2019-01-19T13:12:20.688Z,9.45
2019-01-19T13:15:17.978Z,10.05
2019-01-19T13:18:23.521Z,9.98
2019-01-19T13:21:56.636Z,10.60
2019-01-19T13:24:48.873Z,9.75
2019-01-19T13:27:58.233Z,8.28
2019-01-19T13:31:10.528Z,9.75
2019-01-19T13:34:15.743Z,10.58
2019-01-19T13:37:24.531Z,9.65
2019-01-19T13:40:06.718Z,10.13
2019-01-19T13:43:30.797Z,11.55
2019-01-19T13:46:09.402Z,10.88
2019-01-19T13:49:07.184Z,10.90
2019-01-19T13:51:48.865Z,11.55
2019-01-19T13:54:57.042Z,10.45
2019-01-19T13:57:58.793Z,10.03
2019-01-19T14:01:12.078Z,10.70
2019-01-19T14:04:36.391Z,10.70
2019-01-19T14:08:10.208Z,9.55
2019-01-19T14:10:51.188Z,10.72
2019-01-19T14:13:33.328Z,11.08
2019-01-19T14:16:44.158Z,10.23
2019-01-19T14:19:48.884Z,10.38
2019-01-19T14:23:02.971Z,11.70
2019-01-19T14:26:06.783Z,9.38
2019-01-19T14:29:10.368Z,10.15
2019-01-19T14:32:40.852Z,10.48
2019-01-19T14:35:41.207Z,9.75
2019-01-19T14:39:05.492Z,10.18
2019-01-19T14:41:52.410Z,9.90
2019-01-19T14:44:43.545Z,11.00
2019-01-19T14:47:31.870Z,9.90
2019-01-19T14:50:56.143Z,8.65
2019-01-19T14:54:23.455Z,9.70
2019-01-19T14:57:09.102Z,9.55
2019-01-19T15:00:10.017Z,10.95
2019-01-19T15:03:16.362Z,8.85
2019-01-19T15:06:19.572Z,9.48
2019-01-19T15:09:27.884Z,10.38
2019-01-19T15:12:24.112Z,10.10
2019-01-19T15:15:26.386Z,10.03
2019-01-19T15:19:03.570Z,9.25
2019-01-19T15:21:43.406Z,10.78
2019-01-19T15:24:18.580Z,10.60
2019-01-19T15:27:28.157Z,11.53
2019-01-19T15:30:58.994Z,10.72
2019-01-19T15:34:32.312Z,10.65
2019-01-19T15:37:22.710Z,10.25
2019-01-19T15:40:07.360Z,11.10
2019-01-19T15:43:12.298Z,11.40
2019-01-19T15:46:15.642Z,10.75
2019-01-19T15:49:10.951Z,10.65
2019-01-19T15:52:07.991Z,11.75
2019-01-19T15:55:23.473Z,9.78
2019-01-19T15:58:37.728Z,11.05
2019-01-19T16:01:49.318Z,11.63
2019-01-19T16:05:10.842Z,10.20
2019-01-19T16:08:19.378Z,11.40
2019-01-19T16:11:21.036Z,10.25
2019-01-19T16:14:26.776Z,11.38
2019-01-19T16:17:12.810Z,11.45
2019-01-19T16:19:55.459Z,10.60
2019-01-19T16:22:51.349Z,11.08
2019-01-19T16:25:45.744Z,10.20
2019-01-19T16:28:43.064Z,10.20
2019-01-19T16:31:55.347Z,10.95
2019-01-19T16:34:59.076Z,10.60
2019-01-19T16:37:38.326Z,10.00
2019-01-19T16:40:32.077Z,11.88
2019-01-19T16:43:48.790Z,11.68
2019-01-19T16:47:01.335Z,10.40
2019-01-19T16:49:48.465Z,11.25
2019-01-19T16:52:25.697Z,12.60
2019-01-19T16:55:10.741Z,10.60
2019-01-19T16:58:07.465Z,12.20
2019-01-19T17:01:12.053Z,11.05
2019-01-19T17:04:15.676Z,11.90
2019-01-19T17:07:04.475Z,12.03
2019-01-19T17:09:52.866Z,12.82
2019-01-19T17:12:59.360Z,12.25
2019-01-19T17:16:17.404Z,11.83
2019-01-19T17:19:05.898Z,12.68
2019-01-19T17:22:09.359Z,10.75
2019-01-19T17:25:25.117Z,11.20
2019-01-19T17:28:43.567Z,10.85
2019-01-19T17:31:38.370Z,12.50
2019-01-19T17:34:29.066Z,12.93
2019-01-19T17:37:38.594Z,13.35
2019-01-19T17:41:05.973Z,13.08
2019-01-19T17:43:47.683Z,16.52
2019-01-19T17:46:49.648Z,13.75
2019-01-19T17:49:38.609Z,13.68
2019-01-19T17:52:29.994Z,15.08
2019-01-19T17:55:36.523Z,14.70
2019-01-19T17:58:57.994Z,14.07
2019-01-19T18:02:04.822Z,12.18
2019-01-19T18:04:57.186Z,13.62
2019-01-19T18:07:57.048Z,14.40
2019-01-19T18:11:04.679Z,13.75
2019-01-19T18:14:08.569Z,13.60
2019-01-19T18:16:53.253Z,13.98
2019-01-19T18:19:58.495Z,13.72
2019-01-19T18:23:20.147Z,13.80
2019-01-19T18:26:21.289Z,14.10
2019-01-19T18:29:43.024Z,14.78
2019-01-19T18:32:35.172Z,12.60
2019-01-19T18:35:57.037Z,13.35
2019-01-19T18:38:51.721Z,13.75
2019-01-19T18:41:31.578Z,15.05
2019-01-19T18:44:21.117Z,14.05
2019-01-19T18:47:25.712Z,14.05
2019-01-19T18:50:50.350Z,15.45
2019-01-19T18:53:54.330Z,14.43
2019-01-19T18:57:06.668Z,16.65
2019-01-19T19:00:17.586Z,15.05
2019-01-19T19:03:10.626Z,14.53
2019-01-19T19:06:06.125Z,17.07
2019-01-19T19:09:33.345Z,16.70
2019-01-19T19:12:46.990Z,16.50
2019-01-19T19:15:37.358Z,16.87
2019-01-19T19:18:38.724Z,17.85
2019-01-19T19:21:38.322Z,17.32
2019-01-19T19:24:37.206Z,17.42
2019-01-19T19:27:24.248Z,17.35
2019-01-19T19:30:23.884Z,16.45
2019-01-19T19:33:39.288Z,18.57
2019-01-19T19:36:44.522Z,17.98
2019-01-19T19:39:54.039Z,17.57
2019-01-19T19:42:54.284Z,19.23
2019-01-19T19:46:10.193Z,15.68
2019-01-19T19:49:24.597Z,17.60
2019-01-19T19:51:54.700Z,15.88
2019-01-19T19:54:24.781Z,17.40
2019-01-19T19:56:52.593Z,16.62
2019-01-19T19:59:20.514Z,19.00
2019-01-19T20:01:48.304Z,18.75
2019-01-19T20:04:16.034Z,18.73
2019-01-19T20:06:43.779Z,15.40
2019-01-19T20:09:11.624Z,18.27
2019-01-19T20:11:39.705Z,16.50
2019-01-19T20:14:07.361Z,19.77
2019-01-19T20:16:35.530Z,18.07
2019-01-19T20:19:03.558Z,18.45
2019-01-19T20:21:31.346Z,19.00
2019-01-19T20:23:59.092Z,17.42
2019-01-19T20:26:26.609Z,18.23
2019-01-19T20:28:54.222Z,18.75
2019-01-19T20:31:21.977Z,16.97
2019-01-19T20:33:49.929Z,18.57
2019-01-19T20:36:17.793Z,17.87
2019-01-19T20:38:45.452Z,18.15
2019-01-19T20:41:13.086Z,18.17
2019-01-19T20:43:40.745Z,18.50
2019-01-19T20:46:08.399Z,19.17
2019-01-19T20:48:36.607Z,22.65
2019-01-19T20:51:04.163Z,21.42
2019-01-19T20:53:31.888Z,18.45
2019-01-19T20:55:59.460Z,18.07
2019-01-19T20:58:27.234Z,18.32
2019-01-19T21:00:54.957Z,20.05
2019-01-19T21:03:22.680Z,17.75
2019-01-19T21:05:50.292Z,18.70
2019-01-19T21:08:18.058Z,17.57
2019-01-19T21:10:48.289Z,18.70
2019-01-19T21:13:15.830Z,17.85
2019-01-19T21:15:43.918Z,18.10
2019-01-19T21:18:11.447Z,20.43
2019-01-19T21:20:39.342Z,19.10
2019-01-19T21:23:06.954Z,19.20
2019-01-19T21:25:34.613Z,18.45
2019-01-19T21:28:02.161Z,20.43
2019-01-19T21:30:29.835Z,20.40
2019-01-19T21:32:57.322Z,21.40
2019-01-19T21:35:24.773Z,72.80
2019-01-19T21:37:52.308Z,22.50
2019-01-19T21:40:19.921Z,21.35
2019-01-19T21:42:47.549Z,20.20
2019-01-19T21:45:17.179Z,20.60
2019-01-19T21:47:44.603Z,20.15
2019-01-19T21:50:12.466Z,19.87
2019-01-19T21:52:40.104Z,21.40
2019-01-19T21:55:07.754Z,18.48
2019-01-19T21:57:35.287Z,19.35
2019-01-19T22:00:05.984Z,19.80
2019-01-19T22:02:33.739Z,19.20
2019-01-19T22:05:01.245Z,21.20
2019-01-19T22:07:28.826Z,21.23
2019-01-19T22:09:56.291Z,20.82
2019-01-19T22:12:23.795Z,21.77
2019-01-19T22:14:51.231Z,20.52
2019-01-19T22:17:18.850Z,21.20
2019-01-19T22:19:46.338Z,20.90
2019-01-19T22:22:13.909Z,20.62
2019-01-19T22:24:41.588Z,19.77
2019-01-19T22:27:10.157Z,22.10
2019-01-19T22:29:37.852Z,18.77
2019-01-19T22:32:05.539Z,20.40
2019-01-19T22:34:33.074Z,22.60
2019-01-19T22:37:00.644Z,21.90
2019-01-19T22:39:28.110Z,22.67
2019-01-19T22:41:55.605Z,23.57
2019-01-19T22:44:23.240Z,20.50
2019-01-19T22:46:51.710Z,21.93
2019-01-19T22:49:19.324Z,21.23
2019-01-19T22:51:47.015Z,22.27
2019-01-19T22:54:14.746Z,22.48
2019-01-19T22:56:42.242Z,22.55
2019-01-19T22:59:09.868Z,22.02
2019-01-19T23:01:41.854Z,20.35
2019-01-19T23:04:10.587Z,20.82
2019-01-19T23:06:38.117Z,21.52
2019-01-19T23:09:09.923Z,20.90
2019-01-19T23:11:37.762Z,21.62
2019-01-19T23:14:07.223Z,23.40
2019-01-19T23:16:34.691Z,21.77
2019-01-19T23:19:02.298Z,20.70
2019-01-19T23:21:29.892Z,22.27
2019-01-19T23:23:57.503Z,22.87
2019-01-19T23:26:25.294Z,23.55
2019-01-19T23:28:52.783Z,19.98
2019-01-19T23:31:20.290Z,22.50
2019-01-19T23:33:47.799Z,21.80
2019-01-19T23:36:15.325Z,22.27
2019-01-19T23:38:42.776Z,20.88
2019-01-19T23:41:10.273Z,22.80
2019-01-19T23:43:37.928Z,24.80
2019-01-19T23:46:05.605Z,22.58
2019-01-19T23:48:33.148Z,21.75
2019-01-19T23:51:01.147Z,22.85
2019-01-19T23:53:28.555Z,21.15
2019-01-19T23:55:57.070Z,21.45
2019-01-19T23:58:25.573Z,22.10
